Time;durP1;ratioP1;P1;durP2;ratioP2;P2;SDS_P1;SDS_P2;PMS_P1;PMS_P2;Temp;Humidity;BMP_temperature;BMP_pressure;BME280_temperature;BME280_humidity;BME280_pressure;Samples;Min_cycle;Max_cycle;Signal;HPM_P1;HPM_P2
2022/10/31 00:01:24;;;;;;;13.77;7.20;;;;;;;20.86;63.80;100747.97;5016706;28;20916;-64
2022/10/31 00:03:50;;;;;;;16.80;6.90;;;;;;;20.85;63.94;100742.59;5051250;28;20267;-64
2022/10/31 00:06:17;;;;;;;16.87;6.80;;;;;;;20.83;64.21;100740.09;5090118;28;20784;-63
2022/10/31 00:08:46;;;;;;;15.70;7.40;;;;;;;20.85;63.95;100746.31;5087761;28;20159;-64
2022/10/31 00:11:12;;;;;;;13.43;6.30;;;;;;;20.84;64.00;100744.66;5069845;28;20900;-64
2022/10/31 00:13:37;;;;;;;16.23;6.73;;;;;;;20.85;64.13;100746.31;5051439;28;20432;-64
2022/10/31 00:16:03;;;;;;;14.10;6.83;;;;;;;20.87;64.03;100737.31;5069950;28;20186;-64
2022/10/31 00:18:28;;;;;;;12.20;6.47;;;;;;;20.85;64.44;100746.31;5052576;28;20171;-64
2022/10/31 00:21:00;;;;;;;15.07;6.77;;;;;;;20.83;64.27;100734.38;5070532;28;20171;-64
2022/10/31 00:23:26;;;;;;;14.30;6.67;;;;;;;20.81;64.51;100741.69;5052707;28;20214;-63
2022/10/31 00:25:51;;;;;;;13.13;6.57;;;;;;;20.80;64.43;100738.03;5052245;28;20413;-63
2022/10/31 00:28:17;;;;;;;13.83;5.87;;;;;;;20.84;64.71;100746.69;5070632;28;20155;-64
2022/10/31 00:30:42;;;;;;;10.97;6.53;;;;;;;20.81;64.46;100742.53;5052330;28;20163;-64
2022/10/31 00:33:08;;;;;;;10.03;5.97;;;;;;;20.80;64.90;100740.91;5052695;28;20194;-64
2022/10/31 00:35:33;;;;;;;13.37;6.90;;;;;;;20.81;64.95;100744.56;5070456;28;20202;-64
2022/10/31 00:37:59;;;;;;;11.03;6.40;;;;;;;20.83;64.64;100736.44;5070493;28;20734;-63
2022/10/31 00:40:24;;;;;;;11.80;6.37;;;;;;;20.82;64.69;100729.84;5052684;28;20533;-64
2022/10/31 00:42:49;;;;;;;8.70;5.47;;;;;;;20.81;64.76;100731.06;5070860;28;20172;-63
2022/10/31 00:45:15;;;;;;;13.67;6.07;;;;;;;20.80;64.66;100732.28;5052391;28;20152;-64
2022/10/31 00:47:40;;;;;;;11.23;6.10;;;;;;;20.80;64.73;100737.19;5052483;28;20255;-64
2022/10/31 00:50:06;;;;;;;12.00;6.87;;;;;;;20.80;65.12;100737.19;5069391;28;20164;-64
2022/10/31 00:52:32;;;;;;;16.27;6.87;;;;;;;20.80;64.89;100737.19;5035929;28;20175;-64
2022/10/31 00:54:57;;;;;;;11.47;5.60;;;;;;;20.79;65.07;100742.13;5048715;28;20199;-63
2022/10/31 00:57:22;;;;;;;11.67;6.40;;;;;;;20.81;65.21;100741.69;5049189;28;20183;-64
2022/10/31 00:59:48;;;;;;;9.97;5.50;;;;;;;20.79;65.27;100742.13;5049867;28;20172;-64
2022/10/31 01:02:13;;;;;;;10.73;5.13;;;;;;;20.81;64.91;100739.69;5031659;28;20616;-64
2022/10/31 01:04:39;;;;;;;12.90;6.20;;;;;;;20.81;65.41;100739.69;5080731;28;20868;-64
2022/10/31 01:07:05;;;;;;;9.93;6.00;;;;;;;20.79;65.75;100730.63;5089543;28;20243;-64
2022/10/31 01:09:30;;;;;;;9.57;5.50;;;;;;;20.80;65.73;100732.28;5080891;28;20179;-64
2022/10/31 01:11:55;;;;;;;16.77;6.73;;;;;;;20.79;65.81;100733.50;5051512;28;20183;-64
2022/10/31 01:14:21;;;;;;;11.17;5.23;;;;;;;20.79;65.23;100736.38;5051366;28;20194;-64
2022/10/31 01:16:46;;;;;;;9.87;5.87;;;;;;;20.80;66.15;100743.75;5070269;28;20202;-64
2022/10/31 01:19:12;;;;;;;10.20;5.73;;;;;;;20.78;65.72;100746.16;5073473;28;20171;-63
2022/10/31 01:21:37;;;;;;;12.67;5.83;;;;;;;20.79;65.61;100735.53;5055607;28;20800;-63
2022/10/31 01:24:03;;;;;;;11.00;5.90;;;;;;;20.81;65.74;100741.69;5073544;28;20167;-63
2022/10/31 01:26:32;;;;;;;12.47;5.63;;;;;;;20.78;65.89;100740.44;5073614;28;20186;-64
2022/10/31 01:29:02;;;;;;;10.97;6.17;;;;;;;20.79;65.72;100741.28;5039763;28;20638;-64
2022/10/31 01:31:29;;;;;;;11.33;5.33;;;;;;;20.77;66.01;100738.78;5039565;28;20881;-63
2022/10/31 01:33:55;;;;;;;10.47;5.20;;;;;;;20.77;65.87;100747.38;5055231;28;20829;-64
2022/10/31 01:36:22;;;;;;;7.47;4.70;;;;;;;20.76;66.11;100742.03;5054663;28;20436;-64
2022/10/31 01:38:48;;;;;;;11.30;6.30;;;;;;;20.76;66.19;100751.47;5054236;28;20175;-63
2022/10/31 01:41:15;;;;;;;9.47;4.97;;;;;;;20.79;66.18;100747.00;5072666;28;20445;-64
2022/10/31 01:44:01;;;;;;;8.53;5.27;;;;;;;20.78;65.87;100749.03;5037964;28;20183;-64
2022/10/31 01:46:34;;;;;;;11.73;5.60;;;;;;;20.78;65.91;100743.31;5017938;28;20533;-64
2022/10/31 01:49:01;;;;;;;9.00;5.10;;;;;;;20.78;66.60;100739.63;5001725;28;20507;-64
2022/10/31 01:51:29;;;;;;;9.67;5.23;;;;;;;20.75;66.24;100732.63;5018972;28;20477;-64
2022/10/31 01:53:57;;;;;;;9.80;5.50;;;;;;;20.76;66.39;100730.56;5035412;28;20477;-64
2022/10/31 01:56:22;;;;;;;8.30;4.90;;;;;;;20.78;65.99;100733.88;5035044;28;20829;-64
2022/10/31 01:58:47;;;;;;;10.07;5.60;;;;;;;20.76;65.76;100725.66;5035073;28;20434;-63
2022/10/31 02:01:14;;;;;;;10.07;5.40;;;;;;;20.75;66.04;100724.00;5018349;28;20175;-64
2022/10/31 02:03:40;;;;;;;7.27;4.43;;;;;;;20.75;66.02;100728.91;5042180;28;20552;-63
2022/10/31 02:06:07;;;;;;;7.23;4.87;;;;;;;20.75;66.54;100729.75;5075011;28;20408;-64
2022/10/31 02:08:33;;;;;;;10.23;5.00;;;;;;;20.75;66.30;100726.03;5057732;28;20154;-64
2022/10/31 02:10:59;;;;;;;8.63;4.90;;;;;;;20.76;66.56;100721.94;5038257;28;20919;-64
2022/10/31 02:13:25;;;;;;;10.93;5.20;;;;;;;20.76;66.29;100731.41;5038328;28;20194;-64
2022/10/31 02:15:53;;;;;;;9.13;4.73;;;;;;;20.76;66.81;100725.66;5054375;28;20453;-63
2022/10/31 02:18:18;;;;;;;8.67;5.47;;;;;;;20.75;66.57;100718.25;5054499;28;20171;-64
2022/10/31 02:20:59;;;;;;;7.30;4.73;;;;;;;20.74;66.63;100722.34;5037509;28;20904;-64
2022/10/31 02:23:39;;;;;;;7.10;4.73;;;;;;;20.76;66.23;100719.06;5072689;28;20159;-63
2022/10/31 02:26:16;;;;;;;10.40;5.43;;;;;;;20.73;66.55;100726.41;5072374;28;21193;-64
2022/10/31 02:29:00;;;;;;;11.17;5.00;;;;;;;20.74;66.34;100722.34;5055501;28;20785;-64
2022/10/31 02:31:36;;;;;;;8.77;4.97;;;;;;;20.74;66.58;100716.63;5054072;28;20516;-63
2022/10/31 02:34:21;;;;;;;8.00;4.57;;;;;;;20.74;66.72;100710.03;5055296;28;20480;-64
2022/10/31 02:36:57;;;;;;;8.87;4.77;;;;;;;20.73;66.37;100712.06;5037814;28;21255;-63
2022/10/31 02:39:24;;;;;;;9.07;5.20;;;;;;;20.73;66.44;100714.13;5071679;28;20559;-64
2022/10/31 02:41:55;;;;;;;8.30;4.53;;;;;;;20.73;66.46;100714.13;5053703;28;20409;-64
2022/10/31 02:44:39;;;;;;;8.60;5.30;;;;;;;20.73;66.46;100709.19;5053379;28;21063;-64
2022/10/31 02:47:05;;;;;;;7.07;4.70;;;;;;;20.73;66.79;100705.53;5051567;28;20480;-64
2022/10/31 02:49:45;;;;;;;7.30;4.30;;;;;;;20.73;67.05;100705.53;5051296;28;20426;-63
2022/10/31 02:52:30;;;;;;;8.87;4.80;;;;;;;20.74;66.87;100705.13;5034612;28;20643;-65
2022/10/31 02:54:55;;;;;;;7.27;4.90;;;;;;;20.72;66.72;100701.00;5038548;28;20488;-63
2022/10/31 02:57:28;;;;;;;7.20;4.70;;;;;;;20.73;66.79;100709.19;5071879;28;20417;-64
2022/10/31 03:00:02;;;;;;;8.10;4.90;;;;;;;20.71;66.49;100699.31;5053805;28;20206;-64
2022/10/31 03:02:40;;;;;;;7.60;4.40;;;;;;;20.70;66.81;100703.41;5038416;28;20500;-64
2022/10/31 03:05:12;;;;;;;8.60;4.33;;;;;;;20.70;66.97;100704.25;5091527;28;21080;-63
2022/10/31 03:07:41;;;;;;;8.37;4.57;;;;;;;20.72;67.14;100698.94;5073818;28;20400;-63
2022/10/31 03:10:34;;;;;;;8.33;4.60;;;;;;;20.70;66.75;100704.25;5059684;28;20460;-64
2022/10/31 03:13:17;;;;;;;7.10;4.67;;;;;;;20.71;67.18;100700.16;5071496;28;20408;-64
2022/10/31 03:15:44;;;;;;;7.80;4.40;;;;;;;20.71;67.15;100708.78;5053897;28;20445;-64
2022/10/31 03:18:13;;;;;;;7.83;4.70;;;;;;;20.70;67.00;100704.25;5052525;28;20409;-64
2022/10/31 03:20:47;;;;;;;7.23;4.33;;;;;;;20.68;67.22;100694.38;5052701;28;20759;-64
2022/10/31 03:23:17;;;;;;;7.47;4.27;;;;;;;20.69;67.14;100698.88;5052618;28;20730;-64
2022/10/31 03:25:42;;;;;;;9.37;4.90;;;;;;;20.71;67.04;100699.31;5035948;28;20397;-64
2022/10/31 03:28:08;;;;;;;10.67;4.80;;;;;;;20.69;66.54;100687.41;5052648;28;20896;-64
2022/10/31 03:30:34;;;;;;;10.40;5.20;;;;;;;20.69;66.95;100698.88;5019865;28;20225;-64
2022/10/31 03:33:00;;;;;;;8.40;4.40;;;;;;;20.68;67.26;100697.25;5053463;28;20676;-64
2022/10/31 03:35:25;;;;;;;11.47;4.97;;;;;;;20.69;66.95;100705.47;5036586;28;20460;-63
2022/10/31 03:37:52;;;;;;;6.63;4.40;;;;;;;20.68;67.13;100697.25;5036864;28;20373;-64
2022/10/31 03:40:18;;;;;;;8.70;4.50;;;;;;;20.67;66.83;100704.19;5035978;28;20198;-64
2022/10/31 03:42:46;;;;;;;9.03;5.00;;;;;;;20.67;66.75;100702.13;5053265;28;20900;-63
2022/10/31 03:45:18;;;;;;;6.80;4.20;;;;;;;20.68;66.79;100709.53;5036670;28;20461;-63
2022/10/31 03:47:44;;;;;;;8.10;4.83;;;;;;;20.69;66.79;100694.00;5036605;28;20457;-64
2022/10/31 03:50:10;;;;;;;5.50;3.63;;;;;;;20.66;67.35;100697.63;5052665;28;20417;-64
2022/10/31 03:52:52;;;;;;;6.63;4.00;;;;;;;20.66;66.99;100694.75;5020032;28;20289;-63
2022/10/31 03:55:24;;;;;;;8.50;4.43;;;;;;;20.69;67.30;100691.13;5036698;28;20576;-63
2022/10/31 03:58:09;;;;;;;6.60;4.20;;;;;;;20.68;66.90;100694.38;5037285;28;20417;-63
2022/10/31 04:00:35;;;;;;;7.10;4.07;;;;;;;20.67;67.02;100693.53;5052855;28;20404;-64
2022/10/31 04:03:09;;;;;;;5.57;4.13;;;;;;;20.66;66.91;100691.88;5055566;28;20774;-64
2022/10/31 04:05:34;;;;;;;6.10;4.33;;;;;;;20.66;67.40;100694.75;5057216;28;20186;-63
2022/10/31 04:08:00;;;;;;;9.97;5.50;;;;;;;20.67;66.99;100692.72;5072953;28;20400;-64
2022/10/31 04:10:26;;;;;;;7.60;4.50;;;;;;;20.66;66.79;100693.91;5039884;28;20186;-64
2022/10/31 04:12:56;;;;;;;7.73;4.10;;;;;;;20.66;67.16;100691.03;5036187;28;20402;-64
2022/10/31 04:15:21;;;;;;;5.70;3.50;;;;;;;20.67;67.54;100696.41;5036153;28;20202;-63
2022/10/31 04:17:47;;;;;;;7.83;4.50;;;;;;;20.67;67.29;100699.28;5035784;28;20426;-63
2022/10/31 04:20:15;;;;;;;6.90;4.27;;;;;;;20.66;67.37;100702.53;5070686;28;20229;-63
2022/10/31 04:22:41;;;;;;;7.57;4.37;;;;;;;20.65;67.34;100695.97;5036218;28;20201;-64
2022/10/31 04:25:07;;;;;;;6.27;4.17;;;;;;;20.64;67.13;100694.31;5052450;28;20414;-64
2022/10/31 04:27:32;;;;;;;9.40;4.37;;;;;;;20.66;67.20;100691.88;5019156;28;20183;-64
2022/10/31 04:29:59;;;;;;;6.10;4.10;;;;;;;20.66;67.46;100691.88;5052629;28;20429;-64
2022/10/31 04:32:24;;;;;;;7.07;4.70;;;;;;;20.67;67.15;100695.59;5036166;28;20258;-64
2022/10/31 04:34:50;;;;;;;5.40;3.90;;;;;;;20.65;67.43;100687.38;5070604;28;20823;-64
2022/10/31 04:37:15;;;;;;;5.20;3.87;;;;;;;20.64;67.35;100688.59;5052303;28;20175;-64
2022/10/31 04:39:41;;;;;;;6.90;3.77;;;;;;;20.67;66.97;100687.78;5052366;28;20198;-64
2022/10/31 04:42:06;;;;;;;6.97;4.10;;;;;;;20.67;67.07;100693.53;5035505;28;20579;-64
2022/10/31 04:44:31;;;;;;;6.40;3.90;;;;;;;20.65;67.28;100687.38;5070257;28;20648;-64
2022/10/31 04:46:57;;;;;;;6.43;3.67;;;;;;;20.67;66.80;100690.66;5052360;28;20654;-64
2022/10/31 04:49:22;;;;;;;6.50;3.57;;;;;;;20.65;67.09;100690.22;5052678;28;20163;-64
2022/10/31 04:51:48;;;;;;;6.60;3.77;;;;;;;20.67;67.00;100693.53;5070265;28;20261;-63
2022/10/31 04:54:13;;;;;;;5.67;3.67;;;;;;;20.66;67.16;100691.03;5039673;28;20199;-64
2022/10/31 04:56:39;;;;;;;6.03;3.90;;;;;;;20.65;67.41;100684.50;5039546;28;20180;-63
2022/10/31 04:59:04;;;;;;;5.03;3.57;;;;;;;20.67;67.03;100681.25;5074152;28;20182;-63
2022/10/31 05:01:29;;;;;;;6.97;4.10;;;;;;;20.65;67.28;100690.22;5056043;28;20166;-63
2022/10/31 05:03:55;;;;;;;6.03;4.40;;;;;;;20.65;67.17;100693.09;5084313;28;20194;-63
2022/10/31 05:06:20;;;;;;;6.23;4.03;;;;;;;20.65;67.39;100689.41;5076015;28;20178;-64
2022/10/31 05:08:46;;;;;;;6.30;4.20;;;;;;;20.67;67.22;100686.97;5072615;28;20166;-64
2022/10/31 05:11:11;;;;;;;6.73;3.93;;;;;;;20.68;66.90;100698.06;5073118;28;20233;-64
2022/10/31 05:13:37;;;;;;;6.30;4.07;;;;;;;20.65;67.30;100689.41;5055095;28;20221;-64
2022/10/31 05:16:03;;;;;;;5.63;3.90;;;;;;;20.65;67.32;100681.63;5072690;28;20199;-65
2022/10/31 05:18:28;;;;;;;4.73;3.60;;;;;;;20.66;67.64;100680.41;5055295;28;20171;-65
2022/10/31 05:20:53;;;;;;;5.67;4.03;;;;;;;20.65;67.44;100684.50;5072899;28;20428;-64
2022/10/31 05:23:19;;;;;;;5.60;3.73;;;;;;;20.66;67.40;100673.81;5055707;28;20533;-64
2022/10/31 05:25:44;;;;;;;5.77;3.30;;;;;;;20.67;67.25;100676.31;5055357;28;20159;-64
2022/10/31 05:28:10;;;;;;;7.20;3.93;;;;;;;20.65;67.38;100661.53;5073486;28;20187;-63
2022/10/31 05:30:36;;;;;;;6.20;4.23;;;;;;;20.65;67.37;100670.16;5073472;28;20186;-64
2022/10/31 05:33:01;;;;;;;6.13;3.70;;;;;;;20.64;67.47;100671.38;5038674;28;20159;-64
2022/10/31 05:35:28;;;;;;;6.70;4.43;;;;;;;20.67;67.39;100675.50;5038830;28;20236;-64
2022/10/31 05:37:54;;;;;;;6.07;3.90;;;;;;;20.67;67.01;100676.31;5073533;28;20171;-64
2022/10/31 05:40:19;;;;;;;6.87;3.70;;;;;;;20.66;67.13;100671.81;5073144;28;20421;-64
2022/10/31 05:42:45;;;;;;;6.93;3.90;;;;;;;20.66;67.02;100659.47;5073339;28;20174;-65
2022/10/31 05:45:12;;;;;;;5.50;3.57;;;;;;;20.67;67.14;100669.78;5073058;28;20163;-64
2022/10/31 05:47:41;;;;;;;5.40;3.40;;;;;;;20.67;67.69;100664.84;5055326;28;20159;-64
2022/10/31 05:50:07;;;;;;;5.63;3.70;;;;;;;20.69;67.32;100675.94;5055227;28;20904;-64
2022/10/31 05:52:33;;;;;;;4.60;3.50;;;;;;;20.65;67.17;100673.03;5031898;28;20419;-64
2022/10/31 05:54:58;;;;;;;4.90;3.70;;;;;;;20.65;67.07;100661.53;5031887;28;20459;-64
2022/10/31 05:57:24;;;;;;;5.50;3.90;;;;;;;20.65;67.63;100658.66;5033392;28;20172;-64
2022/10/31 05:59:52;;;;;;;4.70;3.17;;;;;;;20.67;67.01;100672.63;5031769;28;20188;-64
2022/10/31 06:02:18;;;;;;;5.20;3.70;;;;;;;20.67;67.14;100675.50;5015297;28;20167;-63
2022/10/31 06:04:44;;;;;;;5.20;3.40;;;;;;;20.68;66.81;100665.69;5029103;28;20446;-64
2022/10/31 06:07:09;;;;;;;4.80;3.23;;;;;;;20.67;67.54;100664.84;5015167;28;20423;-64
2022/10/31 06:09:35;;;;;;;5.27;3.70;;;;;;;20.67;67.25;100670.56;5032899;28;20181;-63
2022/10/31 06:12:00;;;;;;;6.70;3.90;;;;;;;20.67;67.43;100664.03;5031058;28;20624;-64
2022/10/31 06:14:25;;;;;;;4.60;3.27;;;;;;;20.66;67.26;100670.97;5032575;28;20192;-64
2022/10/31 06:16:51;;;;;;;4.03;3.07;;;;;;;20.67;67.14;100670.56;5008318;28;20213;-63
2022/10/31 06:19:16;;;;;;;5.20;3.37;;;;;;;20.68;67.09;100665.69;5020551;28;20249;-63
2022/10/31 06:21:42;;;;;;;5.63;3.67;;;;;;;20.66;67.53;100668.09;5030806;28;20505;-64
2022/10/31 06:24:07;;;;;;;5.60;3.60;;;;;;;20.65;67.74;100658.66;5031101;28;20849;-63
2022/10/31 06:26:33;;;;;;;5.03;3.07;;;;;;;20.66;67.16;100654.59;5032598;28;20627;-64
2022/10/31 06:28:58;;;;;;;4.90;2.80;;;;;;;20.65;67.26;100658.66;5010743;28;20659;-64
2022/10/31 06:31:23;;;;;;;5.43;3.37;;;;;;;20.65;67.22;100661.53;5030745;28;20176;-64
2022/10/31 06:33:49;;;;;;;5.00;3.40;;;;;;;20.68;67.27;100657.88;5030633;28;20180;-64
2022/10/31 06:36:14;;;;;;;6.40;4.00;;;;;;;20.67;67.29;100661.97;4992787;28;20181;-64
2022/10/31 06:38:40;;;;;;;5.37;3.23;;;;;;;20.67;67.31;100670.56;5017247;28;20204;-63
2022/10/31 06:41:05;;;;;;;5.70;3.70;;;;;;;20.65;67.55;100673.03;5027804;28;20229;-64
2022/10/31 06:43:31;;;;;;;4.30;3.37;;;;;;;20.69;67.42;100668.16;5005716;28;20212;-64
2022/10/31 06:45:56;;;;;;;5.53;3.60;;;;;;;20.67;67.26;100661.97;4994255;28;20247;-64
2022/10/31 06:48:22;;;;;;;4.93;3.30;;;;;;;20.69;67.08;100662.44;5014244;28;20644;-64
2022/10/31 06:50:47;;;;;;;5.87;3.47;;;;;;;20.69;67.09;100662.44;5013148;28;20236;-63
2022/10/31 06:53:14;;;;;;;5.27;3.40;;;;;;;20.68;66.90;100662.81;5037108;28;20792;-63
2022/10/31 06:55:39;;;;;;;4.40;3.23;;;;;;;20.68;67.23;100677.97;5030587;28;20219;-64
2022/10/31 06:58:05;;;;;;;5.20;3.53;;;;;;;20.67;67.00;100664.84;5036314;28;20929;-64
2022/10/31 07:00:30;;;;;;;5.27;3.23;;;;;;;20.68;67.39;100657.06;5027042;28;20175;-64
2022/10/31 07:02:56;;;;;;;6.57;3.70;;;;;;;20.69;67.59;100653.81;5034370;28;20266;-64
2022/10/31 07:05:22;;;;;;;7.07;3.57;;;;;;;20.68;67.20;100666.50;5034986;28;20200;-65
2022/10/31 07:07:47;;;;;;;4.83;3.20;;;;;;;20.70;67.11;100669.81;5028694;28;20429;-64
2022/10/31 07:10:13;;;;;;;5.27;3.53;;;;;;;20.68;67.17;100677.97;5024171;28;20180;-64
2022/10/31 07:12:38;;;;;;;4.27;3.10;;;;;;;20.69;66.95;100678.81;5033680;28;20180;-64
2022/10/31 07:15:04;;;;;;;5.43;3.60;;;;;;;20.70;67.42;100687.03;5030795;28;20224;-63
2022/10/31 07:17:30;;;;;;;4.80;3.20;;;;;;;20.70;66.81;100678.44;5041664;28;20180;-63
2022/10/31 07:19:55;;;;;;;4.80;2.90;;;;;;;20.70;67.17;100686.19;5034216;28;20423;-64
2022/10/31 07:22:21;;;;;;;6.00;3.80;;;;;;;20.68;67.02;100680.84;5049885;28;20320;-64
2022/10/31 07:24:46;;;;;;;6.00;3.60;;;;;;;20.69;67.28;100688.25;5033322;28;20176;-64
2022/10/31 07:27:12;;;;;;;4.37;3.20;;;;;;;20.68;67.22;100686.56;5036854;28;20187;-64
2022/10/31 07:29:37;;;;;;;3.83;3.17;;;;;;;20.67;67.21;100679.19;5045499;28;20163;-64
2022/10/31 07:32:03;;;;;;;4.10;2.80;;;;;;;20.68;67.40;100682.91;5048653;28;20175;-64
2022/10/31 07:34:28;;;;;;;5.20;3.30;;;;;;;20.68;67.13;100688.63;5033230;28;20199;-64
2022/10/31 07:36:54;;;;;;;5.70;3.67;;;;;;;20.71;66.72;100690.72;5034138;28;20191;-63
2022/10/31 07:39:19;;;;;;;6.03;3.37;;;;;;;20.68;67.25;100682.91;5036538;28;20182;-64
2022/10/31 07:41:45;;;;;;;4.33;3.27;;;;;;;20.69;67.25;100678.81;5033455;28;20516;-63
2022/10/31 07:44:10;;;;;;;4.07;3.10;;;;;;;20.70;67.06;100687.03;5036815;28;20928;-64
2022/10/31 07:46:35;;;;;;;5.37;3.70;;;;;;;20.70;67.42;100697.66;5031898;28;20771;-63
2022/10/31 07:49:01;;;;;;;6.00;3.20;;;;;;;20.71;66.92;100699.31;5030978;28;20666;-63
2022/10/31 07:51:26;;;;;;;5.03;2.83;;;;;;;20.69;67.10;100696.03;5048532;28;20357;-64
2022/10/31 07:53:52;;;;;;;6.73;4.00;;;;;;;20.69;67.08;100696.88;5054033;28;20175;-64
2022/10/31 07:56:17;;;;;;;4.30;3.10;;;;;;;20.70;67.46;100698.50;5034821;28;20183;-64
2022/10/31 07:58:43;;;;;;;5.30;3.57;;;;;;;20.71;67.30;100705.91;5030162;28;20184;-64
2022/10/31 08:01:08;;;;;;;6.93;3.27;;;;;;;20.72;67.23;100704.69;5037245;28;20179;-63
2022/10/31 08:03:34;;;;;;;3.70;2.67;;;;;;;20.71;67.08;100705.06;5020319;28;20179;-63
2022/10/31 08:05:59;;;;;;;4.67;3.33;;;;;;;20.69;67.15;100701.75;5035359;28;20188;-63
2022/10/31 08:08:27;;;;;;;4.80;3.30;;;;;;;20.71;67.35;100705.91;5020142;28;20171;-64
2022/10/31 08:10:53;;;;;;;4.63;3.40;;;;;;;20.70;66.86;100706.28;5038346;28;20187;-63
2022/10/31 08:13:18;;;;;;;3.70;2.47;;;;;;;20.73;67.33;100706.31;5038236;28;20455;-64
2022/10/31 08:15:49;;;;;;;5.07;3.13;;;;;;;20.71;67.42;100711.63;5054447;28;20207;-64
2022/10/31 08:18:15;;;;;;;4.40;3.17;;;;;;;20.71;67.35;100705.06;5052711;28;20670;-64
2022/10/31 08:20:41;;;;;;;6.23;2.80;;;;;;;20.72;67.33;100706.75;5020166;28;20433;-64
2022/10/31 08:23:06;;;;;;;4.20;2.90;;;;;;;20.71;67.28;100713.66;5034085;28;20179;-64
2022/10/31 08:25:33;;;;;;;3.87;2.80;;;;;;;20.71;67.33;100700.16;5057561;28;20850;-63
2022/10/31 08:27:58;;;;;;;4.30;2.90;;;;;;;20.73;66.79;100706.31;5034854;28;20171;-64
2022/10/31 08:30:26;;;;;;;5.70;3.70;;;;;;;20.71;67.17;100708.78;5028077;28;20414;-63
2022/10/31 08:33:04;;;;;;;4.87;3.00;;;;;;;20.71;67.00;100705.91;5024014;28;20175;-64
2022/10/31 08:35:29;;;;;;;4.80;3.10;;;;;;;20.72;67.18;100704.69;5033383;28;20485;-64
2022/10/31 08:37:55;;;;;;;4.80;3.27;;;;;;;20.71;67.08;100700.16;5025797;28;20425;-63
2022/10/31 08:40:21;;;;;;;3.83;2.80;;;;;;;20.72;67.39;100707.53;5044532;28;20204;-63
2022/10/31 08:42:47;;;;;;;5.00;3.00;;;;;;;20.72;67.18;100706.75;5059396;28;20454;-65
2022/10/31 08:45:12;;;;;;;5.30;3.20;;;;;;;20.73;67.13;100694.84;5054868;28;20186;-64
2022/10/31 08:47:37;;;;;;;4.43;2.60;;;;;;;20.73;67.35;100697.72;5041698;28;20175;-65
2022/10/31 08:50:03;;;;;;;4.40;3.10;;;;;;;20.74;66.81;100693.66;5057886;28;20172;-64
2022/10/31 08:52:28;;;;;;;5.03;2.90;;;;;;;20.74;67.42;100692.81;5039916;28;20238;-64
2022/10/31 08:54:54;;;;;;;4.13;2.73;;;;;;;20.75;67.09;100686.69;5044012;28;20253;-64
2022/10/31 08:57:19;;;;;;;4.10;2.80;;;;;;;20.74;67.22;100681.34;5039665;28;20273;-64
2022/10/31 08:59:45;;;;;;;4.40;2.87;;;;;;;20.75;66.83;100688.72;5022805;28;20186;-65
2022/10/31 09:02:10;;;;;;;3.63;2.90;;;;;;;20.76;66.80;100690.38;5025742;28;20176;-64
2022/10/31 09:04:36;;;;;;;3.60;2.60;;;;;;;20.74;67.33;100684.22;5060767;28;20195;-65
2022/10/31 09:07:01;;;;;;;3.93;2.97;;;;;;;20.72;67.62;100690.34;5055466;28;20194;-65
2022/10/31 09:09:26;;;;;;;4.20;3.40;;;;;;;20.75;67.03;100688.72;5037383;28;20205;-65
2022/10/31 09:11:52;;;;;;;3.67;2.57;;;;;;;20.73;67.34;100689.09;5056408;28;20187;-66
2022/10/31 09:14:17;;;;;;;4.50;2.87;;;;;;;20.75;66.85;100689.56;5038551;28;20200;-65
2022/10/31 09:16:43;;;;;;;4.00;2.70;;;;;;;20.76;66.79;100679.75;5041936;28;20172;-65
2022/10/31 09:19:08;;;;;;;5.20;3.40;;;;;;;20.75;67.48;100672.34;5033256;28;20217;-66
2022/10/31 09:21:34;;;;;;;4.53;2.80;;;;;;;20.72;67.39;100673.13;5058675;28;20222;-65
2022/10/31 09:23:59;;;;;;;4.50;2.60;;;;;;;20.77;67.16;100666.22;5057978;28;20188;-65
2022/10/31 09:26:25;;;;;;;4.80;3.10;;;;;;;20.77;67.14;100669.91;5041944;28;20175;-65
2022/10/31 09:28:50;;;;;;;4.03;2.90;;;;;;;20.75;67.38;100666.63;5026809;28;20187;-66
2022/10/31 09:31:15;;;;;;;5.47;3.13;;;;;;;20.74;67.45;100659.22;5026400;28;20210;-65
2022/10/31 09:33:42;;;;;;;4.00;2.77;;;;;;;20.77;67.41;100651.88;5057648;28;20692;-65
2022/10/31 09:36:07;;;;;;;3.77;2.57;;;;;;;20.77;67.42;100661.31;5043642;28;20206;-65
2022/10/31 09:38:33;;;;;;;4.37;3.00;;;;;;;20.78;67.32;100660.09;5026176;28;20821;-64
2022/10/31 09:41:15;;;;;;;4.80;3.00;;;;;;;20.78;66.82;100656.41;5035570;28;20184;-65
2022/10/31 09:44:19;;;;;;;3.80;2.90;;;;;;;20.78;67.10;100659.28;5039627;28;20179;-64
2022/10/31 09:47:09;;;;;;;3.80;2.47;;;;;;;20.76;67.08;100650.22;5055154;28;20919;-65
2022/10/31 09:49:43;;;;;;;3.90;2.97;;;;;;;20.78;67.38;100651.47;5058365;28;20417;-64
2022/10/31 09:52:08;;;;;;;4.37;2.80;;;;;;;20.77;66.92;100644.09;5033348;28;20484;-64
2022/10/31 09:54:41;;;;;;;6.13;2.87;;;;;;;20.75;67.54;100649.41;5054665;28;20446;-64
2022/10/31 09:57:10;;;;;;;3.30;2.43;;;;;;;20.77;67.37;100649.00;5032792;28;20225;-65
2022/10/31 09:59:38;;;;;;;5.63;3.43;;;;;;;20.79;67.29;100635.94;5047804;28;20422;-64
2022/10/31 10:02:33;;;;;;;4.53;3.13;;;;;;;20.80;66.97;100646.19;5049131;28;20419;-65
2022/10/31 10:05:00;;;;;;;3.60;2.60;;;;;;;20.80;66.96;100634.72;5042397;28;20802;-65
2022/10/31 10:07:48;;;;;;;4.17;2.87;;;;;;;20.83;67.20;100639.66;5041138;28;20413;-65
2022/10/31 10:10:15;;;;;;;3.73;2.43;;;;;;;20.80;67.11;100628.97;5039919;28;20446;-65
2022/10/31 10:13:16;;;;;;;3.60;2.80;;;;;;;20.80;67.32;100623.22;5039104;28;20500;-65
2022/10/31 10:16:04;;;;;;;4.30;2.87;;;;;;;20.80;66.99;100628.13;5054471;28;20555;-65
2022/10/31 10:18:52;;;;;;;3.93;2.70;;;;;;;20.79;67.40;100633.06;5044205;28;20442;-64
2022/10/31 10:21:24;;;;;;;3.70;2.60;;;;;;;20.79;67.11;100621.59;5029459;28;20422;-64
2022/10/31 10:24:14;;;;;;;3.43;2.40;;;;;;;20.78;67.47;100619.91;5044782;28;20473;-64
2022/10/31 10:26:45;;;;;;;3.40;2.40;;;;;;;20.80;66.99;100616.66;5030799;28;20430;-65
2022/10/31 10:29:42;;;;;;;4.00;2.53;;;;;;;20.79;67.23;100620.75;5032586;28;20936;-65
2022/10/31 10:32:19;;;;;;;4.37;2.53;;;;;;;20.80;67.05;100617.50;5015691;28;20437;-65
2022/10/31 10:34:51;;;;;;;3.87;2.60;;;;;;;20.83;67.08;100619.56;5030190;28;20456;-65
2022/10/31 10:37:32;;;;;;;3.63;2.57;;;;;;;20.83;67.13;100627.38;5021388;28;20437;-65
2022/10/31 10:40:08;;;;;;;4.20;2.80;;;;;;;20.83;66.96;100627.38;5054759;28;20432;-64
2022/10/31 10:48:09;;;;;;;3.50;2.60;;;;;;;20.80;67.53;100606.00;5046795;28;20421;-64
2022/10/31 10:50:36;;;;;;;4.90;3.13;;;;;;;20.79;67.35;100606.41;5021706;28;21341;-65
2022/10/31 10:53:10;;;;;;;4.67;2.77;;;;;;;20.83;67.40;100610.16;5029972;28;20558;-64
2022/10/31 10:55:51;;;;;;;4.83;2.60;;;;;;;20.82;67.34;100609.31;5030527;28;20489;-65
2022/10/31 10:58:16;;;;;;;4.00;2.70;;;;;;;20.83;67.05;100616.69;5052986;28;20426;-64
2022/10/31 11:00:46;;;;;;;3.70;2.70;;;;;;;20.79;67.20;100621.59;5022184;28;20434;-64
2022/10/31 11:03:11;;;;;;;3.40;2.70;;;;;;;20.85;67.18;100608.53;5038964;28;20172;-65
2022/10/31 11:05:37;;;;;;;3.50;2.70;;;;;;;20.80;67.34;100593.69;5020910;28;20490;-65
2022/10/31 11:08:03;;;;;;;4.03;2.43;;;;;;;20.83;67.43;100599.47;5040377;28;20546;-64
2022/10/31 11:10:29;;;;;;;4.13;2.73;;;;;;;20.80;67.27;100606.00;5022304;28;20437;-65
2022/10/31 11:13:21;;;;;;;4.37;2.83;;;;;;;20.81;67.11;100612.56;5021996;28;20450;-65
2022/10/31 11:16:01;;;;;;;4.70;2.77;;;;;;;20.81;67.27;100596.19;5048529;28;20211;-64
2022/10/31 11:18:29;;;;;;;3.90;2.60;;;;;;;20.81;67.29;100592.47;5030776;28;20426;-65
2022/10/31 11:20:57;;;;;;;3.40;2.53;;;;;;;20.79;67.19;100581.41;5022140;28;20436;-65
2022/10/31 11:23:24;;;;;;;4.10;2.80;;;;;;;20.81;67.35;100586.75;5029709;28;20471;-65
2022/10/31 11:26:01;;;;;;;2.97;2.10;;;;;;;20.82;67.39;100583.47;5034814;28;20990;-65
2022/10/31 11:28:30;;;;;;;3.70;2.60;;;;;;;20.80;67.75;100585.09;5045446;28;20421;-66
2022/10/31 11:30:59;;;;;;;3.40;2.30;;;;;;;20.84;67.23;100589.69;5021315;28;20508;-64
2022/10/31 11:33:28;;;;;;;4.07;2.80;;;;;;;20.85;67.41;100588.47;5038325;28;20776;-65
2022/10/31 11:35:53;;;;;;;3.47;2.77;;;;;;;20.84;67.39;100580.22;5056374;28;20460;-65